createdAt,value
2022-09-12T00:01:36.118Z,8.50
2022-09-12T00:04:03.080Z,7.75
2022-09-12T00:06:37.531Z,7.53
2022-09-12T00:09:10.755Z,7.22
2022-09-12T00:11:41.691Z,7.50
2022-09-12T00:14:10.448Z,7.32
2022-09-12T00:16:38.049Z,7.47
2022-09-12T00:19:06.504Z,7.75
2022-09-12T00:21:34.756Z,7.32
2022-09-12T00:24:01.879Z,7.07
2022-09-12T00:26:28.738Z,7.65
2022-09-12T00:28:55.386Z,8.60
2022-09-12T00:31:25.016Z,7.88
2022-09-12T00:33:52.779Z,7.82
2022-09-12T00:36:21.263Z,9.13
2022-09-12T00:38:49.710Z,8.40
2022-09-12T00:41:21.881Z,7.53
2022-09-12T00:43:51.587Z,7.03
2022-09-12T00:46:34.389Z,6.70
2022-09-12T00:49:14.091Z,6.05
2022-09-12T00:51:47.376Z,7.88
2022-09-12T00:54:19.271Z,9.32
2022-09-12T00:56:47.448Z,7.53
2022-09-12T00:59:32.102Z,7.43
2022-09-12T01:01:58.793Z,7.72
2022-09-12T01:04:28.041Z,7.78
2022-09-12T01:06:57.033Z,7.50
2022-09-12T01:09:25.728Z,7.15
2022-09-12T01:11:53.583Z,7.03
2022-09-12T01:14:20.986Z,7.53
2022-09-12T01:16:49.918Z,7.60
2022-09-12T01:19:35.277Z,7.82
2022-09-12T01:22:28.541Z,7.35
2022-09-12T01:25:10.159Z,7.35
2022-09-12T01:27:47.937Z,6.85
2022-09-12T01:30:31.245Z,6.13
2022-09-12T01:33:20.236Z,6.47
2022-09-12T01:36:08.765Z,5.72
2022-09-12T01:38:40.360Z,6.00
2022-09-12T01:41:23.166Z,5.80
2022-09-12T01:43:58.234Z,6.00
2022-09-12T01:46:40.271Z,5.75
2022-09-12T01:49:23.444Z,6.00
2022-09-12T01:52:18.479Z,5.50
2022-09-12T01:54:53.667Z,5.93
2022-09-12T01:57:36.447Z,7.30
2022-09-12T02:00:09.296Z,6.85
2022-09-12T02:02:51.992Z,6.75
2022-09-12T02:05:36.484Z,6.53
2022-09-12T02:08:18.925Z,6.78
2022-09-12T02:10:53.736Z,6.32
2022-09-12T02:13:36.637Z,5.95
2022-09-12T02:16:17.854Z,5.80
2022-09-12T02:18:50.120Z,5.97
2022-09-12T02:21:19.218Z,5.20
2022-09-12T02:23:51.131Z,5.50
2022-09-12T02:26:34.927Z,6.43
2022-09-12T02:29:02.861Z,6.60
2022-09-12T02:31:37.440Z,6.18
2022-09-12T02:34:13.927Z,5.63
2022-09-12T02:36:52.107Z,6.20
2022-09-12T02:39:20.200Z,4.07
2022-09-12T02:41:50.754Z,5.07
2022-09-12T02:44:17.897Z,5.70
2022-09-12T02:46:48.698Z,6.20
2022-09-12T02:49:16.772Z,6.43
2022-09-12T02:51:44.251Z,6.88
2022-09-12T02:54:11.833Z,6.80
2022-09-12T02:56:41.652Z,6.53
2022-09-12T02:59:11.839Z,5.72
2022-09-12T03:01:49.513Z,5.13
2022-09-12T03:04:31.910Z,5.75
2022-09-12T03:07:21.600Z,6.32
2022-09-12T03:09:54.732Z,10.27
2022-09-12T03:12:30.357Z,10.15
2022-09-12T03:15:11.575Z,11.32
2022-09-12T03:17:56.599Z,6.25
2022-09-12T03:20:44.466Z,7.45
2022-09-12T03:23:26.217Z,9.30
2022-09-12T03:26:09.507Z,16.55
2022-09-12T03:28:39.464Z,17.73
2022-09-12T03:31:17.404Z,11.02
2022-09-12T03:33:44.475Z,12.82
2022-09-12T03:36:22.744Z,11.80
2022-09-12T03:38:49.683Z,10.50
2022-09-12T03:41:16.232Z,10.18
2022-09-12T03:43:42.910Z,9.80
2022-09-12T03:46:09.612Z,9.73
2022-09-12T03:48:36.584Z,9.18
2022-09-12T03:51:04.832Z,10.52
2022-09-12T03:53:31.657Z,10.27
2022-09-12T03:55:58.526Z,10.38
2022-09-12T03:58:29.548Z,11.82
2022-09-12T04:00:56.123Z,10.23
2022-09-12T04:03:22.782Z,9.38
2022-09-12T04:05:49.341Z,8.02
2022-09-12T04:08:15.916Z,9.02
2022-09-12T04:10:42.561Z,8.07
2022-09-12T04:13:09.102Z,8.13
2022-09-12T04:15:35.628Z,7.30
2022-09-12T04:18:05.757Z,7.25
2022-09-12T04:20:33.015Z,8.27
2022-09-12T04:22:59.560Z,8.15
2022-09-12T04:25:27.186Z,7.57
2022-09-12T04:27:53.768Z,7.85
2022-09-12T04:30:20.291Z,8.45
2022-09-12T04:32:46.851Z,8.00
2022-09-12T04:35:14.065Z,8.23
2022-09-12T04:37:40.657Z,8.27
2022-09-12T04:40:07.863Z,9.48
2022-09-12T04:42:34.429Z,9.13
2022-09-12T04:45:00.971Z,8.95
2022-09-12T04:47:28.296Z,8.93
2022-09-12T04:49:54.807Z,8.82
2022-09-12T04:52:21.415Z,8.32
2022-09-12T04:54:48.267Z,8.20
2022-09-12T04:57:14.849Z,8.57
2022-09-12T04:59:41.544Z,8.02
2022-09-12T05:02:08.381Z,7.97
2022-09-12T05:04:35.960Z,7.68
2022-09-12T05:07:03.165Z,7.05
2022-09-12T05:09:29.714Z,7.38
2022-09-12T05:12:04.937Z,7.97
2022-09-12T05:14:33.080Z,7.53
2022-09-12T05:17:01.561Z,7.80
2022-09-12T05:19:30.169Z,7.07
2022-09-12T05:21:56.926Z,9.55
2022-09-12T05:24:24.630Z,8.15
2022-09-12T05:26:51.544Z,8.20
2022-09-12T05:29:18.342Z,8.43
2022-09-12T05:31:44.925Z,8.95
2022-09-12T05:34:11.511Z,7.80
2022-09-12T05:36:38.656Z,8.18
2022-09-12T05:39:05.884Z,8.75
2022-09-12T05:41:33.986Z,8.45
2022-09-12T05:44:02.992Z,8.82
2022-09-12T05:46:32.260Z,9.77
2022-09-12T05:49:03.978Z,8.25
2022-09-12T05:51:34.626Z,8.93
2022-09-12T05:54:06.030Z,8.77
2022-09-12T05:59:02.996Z,9.77
2022-09-12T06:01:31.400Z,9.23
2022-09-12T06:04:00.934Z,8.75
2022-09-12T06:06:29.352Z,10.02
2022-09-12T06:09:01.221Z,9.10
2022-09-12T06:11:29.977Z,10.30
2022-09-12T06:13:58.113Z,10.40
2022-09-12T06:16:27.461Z,10.77
2022-09-12T06:18:56.449Z,10.15
2022-09-12T06:21:25.328Z,10.60
2022-09-12T06:23:54.117Z,10.30
2022-09-12T06:26:23.526Z,10.18
2022-09-12T06:28:50.564Z,10.00
2022-09-12T06:31:21.229Z,10.15
2022-09-12T06:33:50.484Z,11.05
2022-09-12T06:36:29.020Z,10.85
2022-09-12T06:39:01.039Z,10.88
2022-09-12T06:41:29.083Z,11.18
2022-09-12T06:43:55.763Z,11.63
2022-09-12T06:46:22.738Z,11.07
2022-09-12T06:48:50.545Z,12.52
2022-09-12T06:51:19.998Z,12.65
2022-09-12T06:53:47.894Z,13.57
2022-09-12T06:56:15.651Z,13.75
2022-09-12T06:58:43.273Z,12.90
2022-09-12T07:01:12.672Z,12.90
2022-09-12T07:03:41.134Z,13.50
2022-09-12T07:06:12.990Z,12.68
2022-09-12T07:08:41.058Z,11.10
2022-09-12T07:11:18.247Z,10.70
2022-09-12T07:13:47.250Z,10.13
2022-09-12T07:16:19.211Z,9.82
2022-09-12T07:18:51.131Z,10.60
2022-09-12T07:21:17.708Z,10.13
2022-09-12T07:23:45.541Z,8.48
2022-09-12T07:26:13.506Z,10.10
2022-09-12T07:28:40.403Z,8.93
2022-09-12T07:31:12.354Z,9.10
2022-09-12T07:33:39.746Z,9.57
2022-09-12T07:36:11.895Z,9.88
2022-09-12T07:38:39.424Z,8.65
2022-09-12T07:41:19.793Z,8.35
2022-09-12T07:43:47.418Z,9.63
2022-09-12T07:46:15.002Z,9.18
2022-09-12T07:48:41.617Z,6.68
2022-09-12T07:51:10.221Z,6.68
2022-09-12T07:53:39.290Z,8.15
2022-09-12T07:56:07.778Z,7.10
2022-09-12T07:58:36.602Z,7.88
2022-09-12T08:01:14.829Z,7.70
2022-09-12T08:03:42.707Z,7.00
2022-09-12T08:06:15.246Z,7.75
2022-09-12T08:08:42.590Z,6.55
2022-09-12T08:11:12.123Z,7.55
2022-09-12T08:13:40.192Z,7.13
2022-09-12T08:16:15.467Z,6.63
2022-09-12T08:18:42.224Z,6.68
2022-09-12T08:21:14.002Z,8.32
2022-09-12T08:23:41.131Z,7.28
2022-09-12T08:26:08.279Z,7.50
2022-09-12T08:28:35.845Z,6.65
2022-09-12T08:31:11.361Z,6.30
2022-09-12T08:33:38.494Z,6.22
2022-09-12T08:36:11.598Z,5.93
2022-09-12T08:38:40.960Z,6.00
2022-09-12T08:41:28.934Z,6.20
2022-09-12T08:43:56.951Z,6.43
2022-09-12T08:46:31.724Z,5.13
2022-09-12T08:49:01.302Z,4.97
2022-09-12T08:51:29.405Z,5.53
2022-09-12T08:53:57.839Z,4.57
2022-09-12T08:56:31.694Z,4.90
2022-09-12T08:58:59.382Z,4.72
2022-09-12T09:01:35.660Z,4.93
2022-09-12T09:04:13.353Z,5.32
2022-09-12T09:07:08.442Z,4.80
2022-09-12T09:09:50.286Z,5.35
2022-09-12T09:12:26.272Z,6.97
2022-09-12T09:15:26.296Z,5.78
2022-09-12T09:18:00.466Z,4.75
2022-09-12T09:20:36.597Z,5.80
2022-09-12T09:23:39.239Z,4.70
2022-09-12T09:26:13.798Z,4.35
2022-09-12T09:28:53.163Z,4.15
2022-09-12T09:31:25.574Z,3.67
2022-09-12T09:33:55.538Z,4.35
2022-09-12T09:36:44.292Z,4.28
2022-09-12T09:39:13.560Z,3.85
2022-09-12T09:42:03.782Z,3.70
2022-09-12T09:44:31.344Z,3.85
2022-09-12T09:46:59.885Z,4.03
2022-09-12T09:49:30.230Z,4.45
2022-09-12T09:52:00.802Z,4.63
2022-09-12T09:54:39.034Z,4.45
2022-09-12T09:57:34.537Z,4.18
2022-09-12T10:00:27.715Z,4.28
2022-09-12T10:03:13.513Z,4.35
2022-09-12T10:05:55.336Z,3.92
2022-09-12T10:08:26.812Z,4.00
2022-09-12T10:11:16.217Z,3.97
2022-09-12T10:13:54.585Z,3.83
2022-09-12T10:16:23.014Z,4.07
2022-09-12T10:18:52.450Z,3.85
2022-09-12T10:21:47.512Z,3.78
2022-09-12T10:24:25.835Z,3.95
2022-09-12T10:27:08.343Z,3.70
2022-09-12T10:29:46.504Z,4.35
2022-09-12T10:32:40.091Z,3.80
2022-09-12T10:35:31.319Z,3.90
2022-09-12T10:40:30.547Z,3.65
2022-09-12T10:43:02.761Z,3.65
2022-09-12T10:45:30.492Z,4.43
2022-09-12T10:48:03.103Z,4.97
2022-09-12T10:50:41.226Z,4.88
2022-09-12T10:53:21.847Z,4.20
2022-09-12T10:56:09.775Z,4.43
2022-09-12T10:58:40.893Z,4.00
2022-09-12T11:01:44.269Z,3.22
2022-09-12T11:04:19.975Z,3.88
2022-09-12T11:06:57.156Z,3.67
2022-09-12T11:09:39.383Z,4.05
2022-09-12T11:12:38.299Z,3.65
2022-09-12T11:15:27.376Z,3.42
2022-09-12T11:18:21.017Z,3.70
2022-09-12T11:21:15.344Z,3.13
2022-09-12T11:23:57.486Z,3.22
2022-09-12T11:27:02.766Z,3.50
2022-09-12T11:29:47.896Z,3.35
2022-09-12T11:32:48.602Z,3.53
2022-09-12T11:35:27.633Z,4.47
2022-09-12T11:38:09.471Z,3.75
2022-09-12T11:40:54.252Z,3.20
2022-09-12T11:43:46.201Z,3.40
2022-09-12T11:46:34.812Z,3.28
2022-09-12T11:49:13.645Z,2.95
2022-09-12T11:51:46.377Z,3.08
2022-09-12T11:54:40.914Z,2.67
2022-09-12T11:57:25.559Z,2.65
2022-09-12T11:59:55.986Z,2.50
2022-09-12T12:02:31.388Z,2.90
2022-09-12T12:05:24.826Z,2.65
2022-09-12T12:07:55.538Z,2.67
2022-09-12T12:10:31.050Z,2.53
2022-09-12T12:13:00.902Z,2.63
2022-09-12T12:15:29.593Z,2.90
2022-09-12T12:18:17.639Z,2.90
2022-09-12T12:20:44.600Z,2.45
2022-09-12T12:23:25.343Z,2.58
2022-09-12T12:25:55.059Z,2.40
2022-09-12T12:28:50.342Z,2.85
2022-09-12T12:31:18.276Z,2.25
2022-09-12T12:33:44.920Z,2.50
2022-09-12T12:36:38.663Z,2.78
2022-09-12T12:39:33.010Z,2.53
2022-09-12T12:42:03.520Z,2.45
2022-09-12T12:44:45.129Z,2.38
2022-09-12T12:47:27.533Z,2.40
2022-09-12T12:50:02.568Z,7.32
2022-09-12T12:52:32.756Z,12.88
2022-09-12T12:55:01.423Z,6.43
2022-09-12T12:57:33.907Z,9.63
2022-09-12T13:00:09.819Z,12.38
2022-09-12T13:02:41.107Z,12.55
2022-09-12T13:05:20.033Z,5.55
2022-09-12T13:07:48.289Z,16.83
2022-09-12T13:10:28.840Z,4.35
2022-09-12T13:13:02.712Z,9.82
2022-09-12T13:15:35.227Z,5.57
2022-09-12T13:18:05.765Z,8.85
2022-09-12T13:20:37.839Z,4.53
2022-09-12T13:23:04.377Z,3.58
2022-09-12T13:25:36.602Z,2.60
2022-09-12T13:28:05.352Z,2.30
2022-09-12T13:30:35.483Z,2.67
2022-09-12T13:33:17.027Z,2.27
2022-09-12T13:35:58.590Z,2.63
2022-09-12T13:38:31.279Z,1.80
2022-09-12T13:41:17.014Z,1.77
2022-09-12T13:43:48.955Z,1.77
2022-09-12T13:46:21.713Z,2.00
2022-09-12T13:48:48.875Z,2.05
2022-09-12T13:51:25.153Z,1.38
2022-09-12T13:53:56.299Z,1.45
2022-09-12T13:56:23.691Z,1.65
2022-09-12T13:58:58.861Z,1.73
2022-09-12T14:01:38.122Z,2.13
2022-09-12T14:04:40.593Z,1.55
2022-09-12T14:07:22.980Z,1.75
2022-09-12T14:09:55.814Z,1.70
2022-09-12T14:12:43.434Z,1.70
2022-09-12T14:15:24.551Z,1.50
2022-09-12T14:17:54.779Z,1.85
2022-09-12T14:20:23.391Z,2.00
2022-09-12T14:22:53.004Z,1.90
2022-09-12T14:25:23.678Z,7.32
2022-09-12T14:27:55.270Z,2.55
2022-09-12T14:30:36.856Z,2.42
2022-09-12T14:33:12.650Z,2.22
2022-09-12T14:36:16.349Z,2.17
2022-09-12T14:38:45.803Z,1.95
2022-09-12T14:41:20.762Z,4.32
2022-09-12T14:43:51.905Z,5.25
2022-09-12T14:46:35.086Z,3.80
2022-09-12T14:49:10.418Z,2.85
2022-09-12T14:51:51.213Z,2.47
2022-09-12T14:54:36.362Z,12.20
2022-09-12T14:57:26.222Z,11.60
2022-09-12T14:59:52.960Z,8.60
2022-09-12T15:02:22.192Z,4.60
2022-09-12T15:05:16.197Z,3.50
2022-09-12T15:07:46.515Z,2.75
2022-09-12T15:10:26.729Z,2.80
2022-09-12T15:13:05.560Z,2.70
2022-09-12T15:15:32.789Z,3.60
2022-09-12T15:18:01.408Z,3.88
2022-09-12T15:20:32.350Z,3.15
2022-09-12T15:22:59.160Z,4.45
2022-09-12T15:25:25.714Z,3.30
2022-09-12T15:27:53.593Z,2.92
2022-09-12T15:30:20.157Z,2.95
2022-09-12T15:32:46.801Z,2.50
2022-09-12T15:35:19.013Z,2.40
2022-09-12T15:37:45.851Z,3.30
2022-09-12T15:40:13.061Z,2.60
2022-09-12T15:42:40.339Z,2.28
2022-09-12T15:45:18.943Z,3.72
2022-09-12T15:47:45.767Z,4.05
2022-09-12T15:50:12.702Z,2.85
2022-09-12T15:52:39.405Z,2.38
2022-09-12T15:55:09.949Z,2.70
2022-09-12T15:57:36.501Z,2.92
2022-09-12T16:00:05.423Z,2.40
2022-09-12T16:02:38.567Z,2.03
2022-09-12T16:05:06.369Z,1.92
2022-09-12T16:07:32.959Z,2.58
2022-09-12T16:09:59.608Z,2.13
2022-09-12T16:12:26.241Z,2.20
2022-09-12T16:14:52.803Z,2.55
2022-09-12T16:17:19.438Z,1.83
2022-09-12T16:19:45.976Z,2.55
2022-09-12T16:22:12.615Z,2.10
2022-09-12T16:24:40.163Z,2.20
2022-09-12T16:27:07.008Z,2.22
2022-09-12T16:29:33.716Z,2.40
2022-09-12T16:32:00.382Z,2.08
2022-09-12T16:34:27.155Z,2.05
2022-09-12T16:36:53.791Z,2.40
2022-09-12T16:39:20.470Z,2.20
2022-09-12T16:41:47.027Z,2.15
2022-09-12T16:44:13.559Z,1.92
2022-09-12T16:46:40.211Z,1.90
2022-09-12T16:49:07.106Z,2.20
2022-09-12T16:51:37.319Z,2.30
2022-09-12T16:54:04.330Z,1.98
2022-09-12T16:56:31.028Z,2.60
2022-09-12T16:58:57.633Z,2.50
2022-09-12T17:01:26.154Z,2.78
2022-09-12T17:03:57.765Z,3.40
2022-09-12T17:06:25.511Z,2.55
2022-09-12T17:08:54.099Z,2.90
2022-09-12T17:11:30.850Z,3.17
2022-09-12T17:14:07.325Z,3.00
2022-09-12T17:16:39.872Z,4.20
2022-09-12T17:19:07.680Z,3.90
2022-09-12T17:21:35.450Z,3.42
2022-09-12T17:24:03.349Z,4.30
2022-09-12T17:26:30.062Z,3.70
2022-09-12T17:28:56.650Z,3.78
2022-09-12T17:31:23.338Z,6.50
2022-09-12T17:33:50.055Z,3.70
2022-09-12T17:36:17.957Z,3.53
2022-09-12T17:38:45.980Z,3.88
2022-09-12T17:41:17.662Z,4.10
2022-09-12T17:43:50.904Z,5.35
2022-09-12T17:46:19.062Z,5.55
2022-09-12T17:48:51.461Z,4.90
2022-09-12T17:51:18.158Z,6.32
2022-09-12T17:53:44.754Z,5.05
2022-09-12T17:56:11.869Z,5.28
2022-09-12T17:58:38.897Z,5.45
2022-09-12T18:01:25.216Z,5.45
2022-09-12T18:03:56.166Z,5.30
2022-09-12T18:06:23.716Z,5.50
2022-09-12T18:08:50.467Z,6.13
2022-09-12T18:11:17.510Z,5.88
2022-09-12T18:13:44.103Z,4.97
2022-09-12T18:16:13.568Z,4.97
2022-09-12T18:18:40.377Z,5.10
2022-09-12T18:21:08.417Z,5.10
2022-09-12T18:23:35.170Z,4.85
2022-09-12T18:26:08.678Z,5.05
2022-09-12T18:28:38.194Z,4.70
2022-09-12T18:31:11.512Z,5.07
2022-09-12T18:33:38.182Z,4.80
2022-09-12T18:36:06.857Z,4.75
2022-09-12T18:38:33.728Z,5.47
2022-09-12T18:41:11.679Z,5.60
2022-09-12T18:43:38.827Z,4.30
2022-09-12T18:46:12.078Z,4.68
2022-09-12T18:48:38.954Z,4.72
2022-09-12T18:51:14.800Z,5.13
2022-09-12T18:53:42.571Z,4.57
2022-09-12T18:56:13.861Z,5.90
2022-09-12T19:01:17.027Z,4.63
2022-09-12T19:03:44.348Z,5.20
2022-09-12T19:06:17.835Z,5.13
2022-09-12T19:08:45.631Z,5.18
2022-09-12T19:11:13.159Z,5.45
2022-09-12T19:13:42.064Z,4.88
2022-09-12T19:16:11.108Z,5.22
2022-09-12T19:18:39.015Z,4.63
2022-09-12T19:21:07.882Z,5.13
2022-09-12T19:23:35.496Z,5.50
2022-09-12T19:26:08.024Z,5.93
2022-09-12T19:28:35.042Z,5.75
2022-09-12T19:31:07.070Z,6.20
2022-09-12T19:33:34.161Z,6.22
2022-09-12T19:36:03.396Z,5.93
2022-09-12T19:38:30.296Z,6.00
2022-09-12T19:40:58.422Z,5.80
2022-09-12T19:43:25.949Z,5.95
2022-09-12T19:45:53.052Z,6.10
2022-09-12T19:48:20.383Z,7.13
2022-09-12T19:50:47.385Z,6.03
2022-09-12T19:53:15.023Z,6.05
2022-09-12T19:55:41.677Z,6.07
2022-09-12T19:58:08.381Z,5.80
2022-09-12T20:00:36.036Z,6.45
2022-09-12T20:03:03.989Z,6.97
2022-09-12T20:05:32.899Z,6.70
2022-09-12T20:07:59.820Z,6.93
2022-09-12T20:10:26.622Z,6.80
2022-09-12T20:12:53.241Z,9.02
2022-09-12T20:15:19.781Z,9.60
2022-09-12T20:17:46.370Z,11.63
2022-09-12T20:20:12.948Z,14.48
2022-09-12T20:22:40.285Z,16.45
2022-09-12T20:25:07.546Z,17.05
2022-09-12T20:27:34.189Z,19.15
2022-09-12T20:30:00.799Z,15.15
2022-09-12T20:32:28.955Z,14.15
2022-09-12T20:34:56.403Z,12.02
2022-09-12T20:37:23.704Z,9.57
2022-09-12T20:39:51.095Z,9.95
2022-09-12T20:42:17.859Z,10.13
2022-09-12T20:44:44.429Z,11.77
2022-09-12T20:47:11.203Z,9.98
2022-09-12T20:49:37.725Z,10.70
2022-09-12T20:52:04.670Z,8.60
2022-09-12T20:54:31.238Z,10.45
2022-09-12T20:56:57.816Z,9.02
2022-09-12T20:59:24.373Z,8.57
2022-09-12T21:01:51.112Z,9.93
2022-09-12T21:04:18.485Z,8.57
2022-09-12T21:06:45.075Z,9.02
2022-09-12T21:09:11.621Z,8.20
2022-09-12T21:11:38.217Z,7.80
2022-09-12T21:14:04.876Z,8.02
2022-09-12T21:16:31.798Z,8.55
2022-09-12T21:18:59.545Z,7.70
2022-09-12T21:21:26.659Z,8.18
2022-09-12T21:23:55.316Z,8.77
2022-09-12T21:26:21.874Z,7.63
2022-09-12T21:28:48.591Z,8.43
2022-09-12T21:31:15.242Z,8.10
2022-09-12T21:33:41.911Z,7.70
2022-09-12T21:36:09.644Z,8.10
2022-09-12T21:38:36.428Z,8.23
2022-09-12T21:41:08.778Z,8.02
2022-09-12T21:43:36.454Z,8.68
2022-09-12T21:46:03.964Z,8.15
2022-09-12T21:48:30.683Z,7.60
2022-09-12T21:50:57.433Z,8.43
2022-09-12T21:53:24.967Z,8.25
2022-09-12T21:55:51.797Z,8.90
2022-09-12T21:58:18.387Z,9.48
2022-09-12T22:00:45.233Z,8.57
2022-09-12T22:03:12.709Z,8.40
2022-09-12T22:05:43.200Z,8.48
2022-09-12T22:08:10.906Z,8.52
2022-09-12T22:10:38.542Z,8.80
2022-09-12T22:13:05.488Z,8.15
2022-09-12T22:15:40.946Z,7.88
2022-09-12T22:18:07.901Z,7.65
2022-09-12T22:20:34.505Z,7.72
2022-09-12T22:23:24.344Z,7.95
2022-09-12T22:25:55.504Z,8.73
2022-09-12T22:28:22.654Z,8.68
2022-09-12T22:30:49.267Z,9.45
2022-09-12T22:33:15.861Z,8.95
2022-09-12T22:35:42.491Z,10.32
2022-09-12T22:38:09.217Z,9.95
2022-09-12T22:40:35.776Z,9.52
2022-09-12T22:43:02.426Z,10.50
2022-09-12T22:45:29.314Z,10.05
2022-09-12T22:48:00.379Z,9.70
2022-09-12T22:50:27.639Z,9.48
2022-09-12T22:52:54.288Z,9.18
2022-09-12T22:55:20.977Z,8.88
2022-09-12T22:57:47.581Z,9.13
2022-09-12T23:00:14.987Z,7.75
2022-09-12T23:02:41.666Z,7.47
2022-09-12T23:05:08.581Z,7.60
2022-09-12T23:07:35.708Z,7.60
2022-09-12T23:10:02.397Z,7.57
2022-09-12T23:12:29.026Z,7.40
2022-09-12T23:14:55.572Z,8.10
2022-09-12T23:17:22.159Z,7.05
2022-09-12T23:19:48.725Z,7.97
2022-09-12T23:22:15.363Z,7.75
2022-09-12T23:24:41.894Z,8.25
2022-09-12T23:27:08.952Z,7.93
2022-09-12T23:29:35.780Z,8.57
2022-09-12T23:32:05.946Z,8.90
2022-09-12T23:34:33.660Z,8.97
2022-09-12T23:37:00.248Z,8.77
2022-09-12T23:39:26.843Z,9.10
2022-09-12T23:41:53.406Z,7.85
2022-09-12T23:44:19.967Z,7.72
2022-09-12T23:46:46.638Z,7.82
2022-09-12T23:49:13.406Z,8.88
2022-09-12T23:51:40.066Z,8.45
2022-09-12T23:54:06.709Z,8.90
2022-09-12T23:56:33.297Z,8.05
2022-09-12T23:59:00.036Z,9.38
